CYMO

Moosonee Airport

Moosonee, Ontario, Canada
METAR CYMO 211510Z AUTO 07004KT 9SM SCT005 M06/M06 A3050 RMK SLP330
Observed Flight Rules
Apr-21 @ 15:10 UTC (31 minutes ago) Visual Flight Rules
Wind Visibility Clouds
70° at 4 knots 9 miles
  • Scattered at 500' AGL
Temperatures Readings
Current -6°C / 21°F
Dewpoint -6°C / 21°F
Humidity 100%
Altimeter 30.5" Hg
Pressure 1033 hPa
Elevation 10
METAR CYMO 211510Z AUTO 07004KT 9SM SCT005 M06/M06 A3050 RMK SLP330
Observed Flight Rules
Apr-21 @ 15:10 UTC
(31 minutes ago)
VFR
Wind Visibility
70° at 4 knots 9 miles
Clouds
  • Scattered at 500' AGL
Temperature Dewpoint
-6°C / 21°F -6°C / 21°F
Humidity Altimeter Pressure
100% 30.5" Hg 1033 hPa